createdAt,value
2022-10-14T00:00:06.612Z,6
2022-10-14T00:01:06.656Z,5
2022-10-14T00:02:06.691Z,6
2022-10-14T00:03:06.581Z,5
2022-10-14T00:04:06.609Z,6
2022-10-14T00:05:06.605Z,3
2022-10-14T00:06:06.583Z,6
2022-10-14T00:07:06.604Z,6
2022-10-14T00:08:06.587Z,6
2022-10-14T00:09:06.611Z,6
2022-10-14T00:10:06.576Z,6
2022-10-14T00:11:06.581Z,6
2022-10-14T00:12:06.694Z,6
2022-10-14T00:13:06.940Z,6
2022-10-14T00:14:06.581Z,3
2022-10-14T00:15:06.590Z,6
2022-10-14T00:16:06.602Z,6
2022-10-14T00:17:06.599Z,6
2022-10-14T00:18:06.594Z,6
2022-10-14T00:19:06.594Z,6
2022-10-14T00:20:06.581Z,6
2022-10-14T00:21:06.580Z,4
2022-10-14T00:22:06.603Z,6
2022-10-14T00:23:06.620Z,6
2022-10-14T00:24:06.615Z,6
2022-10-14T00:25:06.585Z,6
2022-10-14T00:26:06.602Z,6
2022-10-14T00:27:06.574Z,6
2022-10-14T00:28:06.606Z,6
2022-10-14T00:29:06.581Z,6
2022-10-14T00:30:06.619Z,6
2022-10-14T00:31:06.583Z,6
2022-10-14T00:32:06.605Z,6
2022-10-14T00:33:06.596Z,6
2022-10-14T00:34:06.611Z,6
2022-10-14T00:35:06.651Z,3
2022-10-14T00:36:06.593Z,6
2022-10-14T00:37:06.588Z,5
2022-10-14T00:38:06.608Z,5
2022-10-14T00:39:06.586Z,6
2022-10-14T00:40:06.615Z,6
2022-10-14T00:41:06.578Z,6
2022-10-14T00:42:06.592Z,6
2022-10-14T00:43:06.611Z,6
2022-10-14T00:44:06.589Z,3
2022-10-14T00:45:06.576Z,5
2022-10-14T00:46:06.581Z,5
2022-10-14T00:47:06.602Z,6
2022-10-14T00:48:06.614Z,4
2022-10-14T00:49:06.581Z,5
2022-10-14T00:50:06.606Z,5
2022-10-14T00:51:06.600Z,4
2022-10-14T00:52:06.583Z,6
2022-10-14T00:53:06.593Z,5
2022-10-14T00:54:06.586Z,5
2022-10-14T00:55:06.594Z,5
2022-10-14T00:56:06.581Z,5
2022-10-14T00:57:06.609Z,5
2022-10-14T00:58:06.581Z,6
2022-10-14T00:59:06.597Z,5
2022-10-14T01:00:06.628Z,6
2022-10-14T01:01:06.666Z,5
2022-10-14T01:02:06.591Z,3
2022-10-14T01:03:06.583Z,5
2022-10-14T01:04:06.611Z,5
2022-10-14T01:05:06.593Z,5
2022-10-14T01:06:06.604Z,5
2022-10-14T01:07:06.601Z,5
2022-10-14T01:08:06.604Z,3
2022-10-14T01:09:06.627Z,5
2022-10-14T01:10:06.577Z,5
2022-10-14T01:11:06.598Z,5
2022-10-14T01:13:12.910Z,5
2022-10-14T01:14:06.582Z,5
2022-10-14T01:15:06.592Z,5
2022-10-14T01:16:06.618Z,5
2022-10-14T01:17:06.619Z,5
2022-10-14T01:18:06.592Z,3
2022-10-14T01:19:06.575Z,4
2022-10-14T01:20:06.618Z,5
2022-10-14T01:21:06.587Z,3
2022-10-14T01:22:06.614Z,4
2022-10-14T01:23:06.630Z,5
2022-10-14T01:24:06.587Z,4
2022-10-14T01:25:06.614Z,5
2022-10-14T01:26:06.583Z,5
2022-10-14T01:27:06.602Z,4
2022-10-14T01:28:06.586Z,3
2022-10-14T01:29:06.578Z,4
2022-10-14T01:30:06.580Z,4
2022-10-14T01:31:06.594Z,5
2022-10-14T01:32:06.609Z,5
2022-10-14T01:33:06.613Z,5
2022-10-14T01:34:06.584Z,4
2022-10-14T01:35:06.590Z,5
2022-10-14T01:36:06.598Z,5
2022-10-14T01:37:06.609Z,3
2022-10-14T01:38:06.607Z,4
2022-10-14T01:39:06.576Z,5
2022-10-14T01:40:06.584Z,4
2022-10-14T01:41:06.609Z,5
2022-10-14T01:42:06.596Z,3
2022-10-14T01:43:06.612Z,5
2022-10-14T01:44:06.581Z,5
2022-10-14T01:45:06.597Z,5
2022-10-14T01:46:06.597Z,5
2022-10-14T01:47:06.615Z,5
2022-10-14T01:48:06.581Z,5
2022-10-14T01:49:06.610Z,5
2022-10-14T01:50:06.601Z,5
2022-10-14T01:51:06.593Z,5
2022-10-14T01:52:06.588Z,5
2022-10-14T01:53:06.614Z,3
2022-10-14T01:54:06.588Z,4
2022-10-14T01:55:06.598Z,4
2022-10-14T01:56:06.595Z,5
2022-10-14T01:57:06.642Z,5
2022-10-14T01:58:06.609Z,5
2022-10-14T01:59:06.615Z,5
2022-10-14T02:00:06.666Z,5
2022-10-14T02:01:06.606Z,4
2022-10-14T02:02:06.658Z,5
2022-10-14T02:03:06.654Z,5
2022-10-14T02:04:06.586Z,5
2022-10-14T02:05:06.593Z,3
2022-10-14T02:06:06.598Z,4
2022-10-14T02:07:06.621Z,5
2022-10-14T02:08:06.587Z,5
2022-10-14T02:09:06.605Z,3
2022-10-14T02:10:06.600Z,4
2022-10-14T02:11:06.606Z,5
2022-10-14T02:12:06.609Z,5
2022-10-14T02:14:06.599Z,3
2022-10-14T02:15:06.589Z,4
2022-10-14T02:16:06.593Z,4
2022-10-14T02:17:06.606Z,4
2022-10-14T02:18:06.597Z,5
2022-10-14T02:19:06.586Z,5
2022-10-14T02:20:06.591Z,5
2022-10-14T02:21:06.585Z,5
2022-10-14T02:22:06.624Z,3
2022-10-14T02:23:06.598Z,4
2022-10-14T02:24:06.604Z,5
2022-10-14T02:25:06.602Z,4
2022-10-14T02:26:06.602Z,5
2022-10-14T02:27:06.613Z,5
2022-10-14T02:28:06.612Z,4
2022-10-14T02:29:06.643Z,4
2022-10-14T02:30:06.588Z,4
2022-10-14T02:31:06.595Z,4
2022-10-14T02:32:06.607Z,5
2022-10-14T02:33:06.587Z,5
2022-10-14T02:34:06.700Z,5
2022-10-14T02:35:06.600Z,2
2022-10-14T02:36:06.614Z,4
2022-10-14T02:37:06.597Z,4
2022-10-14T02:38:06.609Z,5
2022-10-14T02:39:06.612Z,4
2022-10-14T02:40:06.602Z,4
2022-10-14T02:41:06.617Z,5
2022-10-14T02:42:06.639Z,4
2022-10-14T02:43:06.615Z,4
2022-10-14T02:44:06.606Z,4
2022-10-14T02:45:06.604Z,5
2022-10-14T02:46:06.614Z,4
2022-10-14T02:47:06.612Z,4
2022-10-14T02:48:06.594Z,5
2022-10-14T02:49:06.612Z,5
2022-10-14T02:50:06.616Z,5
2022-10-14T02:51:06.602Z,5
2022-10-14T02:52:06.640Z,2
2022-10-14T02:53:06.601Z,4
2022-10-14T02:54:06.614Z,4
2022-10-14T02:55:06.613Z,4
2022-10-14T02:56:06.596Z,4
2022-10-14T02:57:06.617Z,4
2022-10-14T02:58:06.631Z,4
2022-10-14T02:59:06.626Z,4
2022-10-14T03:00:06.606Z,4
2022-10-14T03:01:06.612Z,4
2022-10-14T03:02:06.645Z,4
2022-10-14T03:03:06.626Z,4
2022-10-14T03:04:06.626Z,5
2022-10-14T03:05:06.634Z,4
2022-10-14T03:06:06.600Z,5
2022-10-14T03:07:06.605Z,4
2022-10-14T03:08:06.625Z,4
2022-10-14T03:09:06.589Z,5
2022-10-14T03:10:06.604Z,4
2022-10-14T03:11:06.599Z,4
2022-10-14T03:12:06.618Z,4
2022-10-14T03:13:06.624Z,5
2022-10-14T03:14:06.622Z,3
2022-10-14T03:15:06.624Z,4
2022-10-14T03:16:06.611Z,4
2022-10-14T03:17:06.602Z,4
2022-10-14T03:18:06.607Z,4
2022-10-14T03:19:06.606Z,4
2022-10-14T03:20:06.616Z,4
2022-10-14T03:21:06.606Z,4
2022-10-14T03:22:06.592Z,4
2022-10-14T03:23:06.608Z,4
2022-10-14T03:24:06.598Z,4
2022-10-14T03:25:06.584Z,4
2022-10-14T03:26:09.492Z,4
2022-10-14T03:27:06.611Z,5
2022-10-14T03:28:06.632Z,2
2022-10-14T03:29:06.607Z,4
2022-10-14T03:30:06.595Z,4
2022-10-14T03:31:06.595Z,4
2022-10-14T03:32:06.637Z,4
2022-10-14T03:33:06.613Z,4
2022-10-14T03:34:06.624Z,5
2022-10-14T03:35:06.612Z,4
2022-10-14T03:36:06.635Z,4
2022-10-14T03:37:06.608Z,3
2022-10-14T03:38:06.622Z,4
2022-10-14T03:39:06.625Z,4
2022-10-14T03:40:06.627Z,4
2022-10-14T03:41:06.602Z,4
2022-10-14T03:42:06.613Z,5
2022-10-14T03:43:06.625Z,4
2022-10-14T03:44:06.620Z,4
2022-10-14T03:45:06.593Z,4
2022-10-14T03:46:06.606Z,4
2022-10-14T03:47:06.616Z,5
2022-10-14T03:48:06.617Z,4
2022-10-14T03:49:06.587Z,4
2022-10-14T03:50:06.600Z,4
2022-10-14T03:51:06.646Z,4
2022-10-14T03:52:06.618Z,5
2022-10-14T03:53:06.626Z,5
2022-10-14T03:54:06.605Z,4
2022-10-14T03:55:06.597Z,4
2022-10-14T03:56:06.630Z,4
2022-10-14T03:57:06.609Z,4
2022-10-14T03:58:06.609Z,4
2022-10-14T03:59:06.598Z,5
2022-10-14T04:00:06.620Z,4
2022-10-14T04:01:06.615Z,5
2022-10-14T04:02:06.711Z,4
2022-10-14T04:03:06.610Z,5
2022-10-14T04:04:06.603Z,5
2022-10-14T04:05:06.627Z,4
2022-10-14T04:06:06.618Z,4
2022-10-14T04:07:06.635Z,4
2022-10-14T04:08:06.654Z,4
2022-10-14T04:09:06.632Z,5
2022-10-14T04:10:06.630Z,4
2022-10-14T04:11:06.609Z,2
2022-10-14T04:12:06.621Z,4
2022-10-14T04:13:06.645Z,4
2022-10-14T04:14:06.632Z,4
2022-10-14T04:15:06.625Z,4
2022-10-14T04:16:06.607Z,3
2022-10-14T04:17:06.599Z,4
2022-10-14T04:18:06.621Z,4
2022-10-14T04:19:06.610Z,4
2022-10-14T04:20:06.605Z,4
2022-10-14T04:21:06.617Z,4
2022-10-14T04:22:06.599Z,4
2022-10-14T04:23:06.624Z,5
2022-10-14T04:24:08.559Z,4
2022-10-14T04:25:06.628Z,4
2022-10-14T04:26:06.608Z,4
2022-10-14T04:27:06.626Z,4
2022-10-14T04:28:06.636Z,4
2022-10-14T04:29:06.620Z,4
2022-10-14T04:30:06.643Z,4
2022-10-14T04:31:06.609Z,4
2022-10-14T04:32:06.626Z,4
2022-10-14T04:33:06.645Z,4
2022-10-14T04:34:06.629Z,4
2022-10-14T04:35:06.632Z,4
2022-10-14T04:36:06.624Z,4
2022-10-14T04:37:06.662Z,4
2022-10-14T04:38:06.659Z,3
2022-10-14T04:39:06.627Z,4
2022-10-14T04:40:06.647Z,4
2022-10-14T04:41:06.630Z,4
2022-10-14T04:42:06.614Z,4
2022-10-14T04:43:06.628Z,4
2022-10-14T04:44:06.638Z,4
2022-10-14T04:45:06.662Z,5
2022-10-14T04:46:06.643Z,6
2022-10-14T04:47:06.658Z,6
2022-10-14T04:48:06.622Z,6
2022-10-14T04:49:06.641Z,7
2022-10-14T04:50:06.644Z,5
2022-10-14T04:51:06.613Z,5
2022-10-14T04:52:06.686Z,6
2022-10-14T04:53:10.597Z,6
2022-10-14T04:54:06.647Z,5
2022-10-14T04:55:06.642Z,5
2022-10-14T04:56:06.625Z,5
2022-10-14T04:57:06.672Z,5
2022-10-14T04:58:06.624Z,5
2022-10-14T04:59:06.669Z,3
2022-10-14T05:00:06.668Z,5
2022-10-14T05:01:06.622Z,4
2022-10-14T05:02:06.669Z,4
2022-10-14T05:03:06.611Z,4
2022-10-14T05:04:06.638Z,4
2022-10-14T05:05:06.638Z,4
2022-10-14T05:06:06.650Z,4
2022-10-14T05:07:06.638Z,4
2022-10-14T05:08:06.626Z,4
2022-10-14T05:09:06.655Z,2
2022-10-14T05:10:06.608Z,3
2022-10-14T05:11:06.626Z,4
2022-10-14T05:12:06.666Z,4
2022-10-14T05:13:06.669Z,4
2022-10-14T05:14:06.606Z,4
2022-10-14T05:15:06.626Z,4
2022-10-14T05:16:06.649Z,4
2022-10-14T05:17:06.616Z,4
2022-10-14T05:18:06.608Z,4
2022-10-14T05:19:06.621Z,4
2022-10-14T05:20:06.629Z,4
2022-10-14T05:21:06.620Z,4
2022-10-14T05:22:06.616Z,3
2022-10-14T05:23:06.673Z,4
2022-10-14T05:24:06.621Z,4
2022-10-14T05:25:06.617Z,4
2022-10-14T05:26:06.617Z,4
2022-10-14T05:27:06.625Z,4
2022-10-14T05:28:06.666Z,4
2022-10-14T05:29:06.633Z,4
2022-10-14T05:30:06.628Z,4
2022-10-14T05:31:06.623Z,4
2022-10-14T05:32:06.612Z,4
2022-10-14T05:33:06.637Z,3
2022-10-14T05:34:06.778Z,5
2022-10-14T05:35:06.650Z,5
2022-10-14T05:36:06.627Z,5
2022-10-14T05:37:06.624Z,5
2022-10-14T05:38:06.635Z,5
2022-10-14T05:39:06.624Z,5
2022-10-14T05:40:06.718Z,5
2022-10-14T05:41:06.615Z,5
2022-10-14T05:42:06.624Z,5
2022-10-14T05:43:06.635Z,5
2022-10-14T05:44:06.618Z,5
2022-10-14T05:45:06.620Z,6
2022-10-14T05:46:06.622Z,3
2022-10-14T05:47:06.637Z,5
2022-10-14T05:48:06.656Z,5
2022-10-14T05:49:06.625Z,5
2022-10-14T05:50:06.617Z,5
2022-10-14T05:51:06.619Z,5
2022-10-14T05:52:06.621Z,5
2022-10-14T05:53:06.619Z,5
2022-10-14T05:54:06.630Z,5
2022-10-14T05:55:06.637Z,3
2022-10-14T05:56:06.635Z,5
2022-10-14T05:57:06.623Z,5
2022-10-14T05:58:06.627Z,5
2022-10-14T05:59:06.641Z,5
2022-10-14T06:00:06.649Z,5
2022-10-14T06:01:06.615Z,5
2022-10-14T06:02:06.623Z,5
2022-10-14T06:03:06.646Z,5
2022-10-14T06:04:06.651Z,5
2022-10-14T06:05:06.625Z,5
2022-10-14T06:06:06.651Z,3
2022-10-14T06:07:06.693Z,4
2022-10-14T06:08:06.633Z,5
2022-10-14T06:09:11.190Z,5
2022-10-14T06:10:06.656Z,5
2022-10-14T06:11:06.677Z,4
2022-10-14T06:12:06.742Z,4
2022-10-14T06:13:06.644Z,4
2022-10-14T06:14:06.647Z,4
2022-10-14T06:15:06.624Z,4
2022-10-14T06:16:06.635Z,4
2022-10-14T06:17:06.716Z,4
2022-10-14T06:18:06.624Z,4
2022-10-14T06:19:06.627Z,4
2022-10-14T06:20:06.632Z,4
2022-10-14T06:21:06.629Z,2
2022-10-14T06:22:06.800Z,4
2022-10-14T06:23:06.634Z,4
2022-10-14T06:24:06.638Z,4
2022-10-14T06:25:06.627Z,4
2022-10-14T06:26:06.653Z,4
2022-10-14T06:27:06.789Z,4
2022-10-14T06:28:06.640Z,4
2022-10-14T06:29:06.634Z,4
2022-10-14T06:30:06.638Z,4
2022-10-14T06:31:06.610Z,4
2022-10-14T06:32:06.691Z,4
2022-10-14T06:33:06.643Z,4
2022-10-14T06:34:06.629Z,4
2022-10-14T06:35:06.624Z,4
2022-10-14T06:36:06.636Z,4
2022-10-14T06:37:06.861Z,4
2022-10-14T06:38:06.729Z,4
2022-10-14T06:39:06.625Z,4
2022-10-14T06:40:06.631Z,4
2022-10-14T06:41:06.661Z,4
2022-10-14T06:42:12.097Z,4
2022-10-14T06:43:06.617Z,4
2022-10-14T06:44:06.635Z,4
2022-10-14T06:45:06.636Z,4
2022-10-14T06:46:06.631Z,18
2022-10-14T06:47:06.663Z,8
2022-10-14T06:48:06.635Z,21
2022-10-14T06:49:06.652Z,15
2022-10-14T06:50:06.681Z,9
2022-10-14T06:51:06.634Z,7
2022-10-14T06:52:06.623Z,5
2022-10-14T06:53:06.637Z,5
2022-10-14T06:54:06.641Z,5
2022-10-14T06:55:06.666Z,5
2022-10-14T06:56:06.637Z,5
2022-10-14T06:57:06.636Z,5
2022-10-14T06:58:06.636Z,5
2022-10-14T06:59:06.641Z,4
2022-10-14T07:00:06.625Z,4
2022-10-14T07:01:06.644Z,5
2022-10-14T07:02:06.738Z,5
2022-10-14T07:03:06.637Z,5
2022-10-14T07:04:06.624Z,4
2022-10-14T07:05:06.631Z,4
2022-10-14T07:06:06.628Z,5
2022-10-14T07:07:06.643Z,5
2022-10-14T07:08:07.358Z,5
2022-10-14T07:09:06.643Z,5
2022-10-14T07:10:06.648Z,5
2022-10-14T07:11:06.629Z,5
2022-10-14T07:12:06.665Z,5
2022-10-14T07:13:06.657Z,5
2022-10-14T07:14:06.640Z,5
2022-10-14T07:15:06.652Z,6
2022-10-14T07:16:06.642Z,5
2022-10-14T07:17:06.660Z,5
2022-10-14T07:18:06.628Z,5
2022-10-14T07:19:06.662Z,5
2022-10-14T07:20:06.625Z,6
2022-10-14T07:21:06.664Z,5
2022-10-14T07:22:06.626Z,6
2022-10-14T07:23:06.646Z,5
2022-10-14T07:24:06.642Z,5
2022-10-14T07:25:06.655Z,6
2022-10-14T07:26:06.645Z,5
2022-10-14T07:27:06.652Z,6
2022-10-14T07:28:06.649Z,6
2022-10-14T07:29:06.671Z,7
2022-10-14T07:30:06.695Z,5
2022-10-14T07:31:06.655Z,3
2022-10-14T07:32:06.655Z,5
2022-10-14T07:33:06.645Z,6
2022-10-14T07:34:06.659Z,6
2022-10-14T07:35:06.646Z,5
2022-10-14T07:36:06.648Z,5
2022-10-14T07:37:06.627Z,5
2022-10-14T07:38:06.637Z,5
2022-10-14T07:39:06.661Z,6
2022-10-14T07:40:06.645Z,5
2022-10-14T07:41:06.647Z,5
2022-10-14T07:42:06.694Z,5
2022-10-14T07:43:06.650Z,5
2022-10-14T07:44:06.690Z,5
2022-10-14T07:45:06.676Z,5
2022-10-14T07:46:06.653Z,5
2022-10-14T07:47:06.641Z,5
2022-10-14T07:48:06.660Z,5
2022-10-14T07:49:06.650Z,5
2022-10-14T07:50:06.660Z,6
2022-10-14T07:51:06.676Z,5
2022-10-14T07:52:06.643Z,6
2022-10-14T07:53:06.653Z,5
2022-10-14T07:54:06.647Z,5
2022-10-14T07:55:06.635Z,6
2022-10-14T07:56:06.752Z,5
2022-10-14T07:57:06.662Z,5
2022-10-14T07:58:06.654Z,5
2022-10-14T07:59:06.634Z,5
2022-10-14T08:00:06.708Z,5
2022-10-14T08:01:06.659Z,5
2022-10-14T08:02:06.704Z,5
2022-10-14T08:03:06.667Z,5
2022-10-14T08:04:06.639Z,5
2022-10-14T08:05:36.550Z,5
2022-10-14T08:06:06.667Z,5
2022-10-14T08:07:06.647Z,5
2022-10-14T08:08:06.650Z,5
2022-10-14T08:09:06.661Z,5
2022-10-14T08:10:06.633Z,5
2022-10-14T08:11:06.666Z,5
2022-10-14T08:12:06.658Z,5
2022-10-14T08:13:06.655Z,5
2022-10-14T08:14:06.689Z,5
2022-10-14T08:15:06.695Z,5
2022-10-14T08:16:06.653Z,5
2022-10-14T08:17:06.662Z,5
2022-10-14T08:18:06.667Z,5
2022-10-14T08:19:11.011Z,5
2022-10-14T08:20:06.775Z,5
2022-10-14T08:21:06.657Z,5
2022-10-14T08:22:06.666Z,5
2022-10-14T08:23:06.676Z,5
2022-10-14T08:24:06.673Z,5
2022-10-14T08:25:06.664Z,5
2022-10-14T08:26:06.730Z,5
2022-10-14T08:27:06.638Z,5
2022-10-14T08:28:06.663Z,4
2022-10-14T08:29:06.694Z,4
2022-10-14T08:30:10.140Z,5
2022-10-14T08:31:06.663Z,4
2022-10-14T08:32:06.647Z,4
2022-10-14T08:33:06.647Z,5
2022-10-14T08:34:06.906Z,5
2022-10-14T08:35:06.646Z,5
2022-10-14T08:36:06.721Z,4
2022-10-14T08:37:06.719Z,4
2022-10-14T08:38:06.693Z,4
2022-10-14T08:39:06.810Z,5
2022-10-14T08:40:06.654Z,4
2022-10-14T08:41:06.649Z,4
2022-10-14T08:42:06.662Z,4
2022-10-14T08:43:06.656Z,4
2022-10-14T08:44:06.717Z,5
2022-10-14T08:45:06.645Z,4
2022-10-14T08:46:06.732Z,5
2022-10-14T08:47:06.680Z,5
2022-10-14T08:48:06.666Z,5
2022-10-14T08:49:06.695Z,5
2022-10-14T08:50:06.657Z,5
2022-10-14T08:51:06.665Z,5
2022-10-14T08:52:06.636Z,5
2022-10-14T08:53:06.654Z,5
2022-10-14T08:54:06.667Z,5
2022-10-14T08:55:06.657Z,5
2022-10-14T08:56:06.685Z,5
2022-10-14T08:57:06.676Z,4
2022-10-14T08:58:10.389Z,5
2022-10-14T08:59:06.677Z,5
2022-10-14T09:00:06.649Z,5
2022-10-14T09:01:09.843Z,5
2022-10-14T09:02:06.676Z,5
2022-10-14T09:03:06.710Z,5
2022-10-14T09:04:06.721Z,5
2022-10-14T09:05:06.660Z,5
2022-10-14T09:06:06.669Z,5
2022-10-14T09:07:06.658Z,5
2022-10-14T09:08:06.648Z,5
2022-10-14T09:09:06.664Z,5
2022-10-14T09:10:06.651Z,5
2022-10-14T09:11:06.653Z,5
2022-10-14T09:12:06.654Z,5
2022-10-14T09:13:06.638Z,5
2022-10-14T09:14:06.665Z,5
2022-10-14T09:15:06.648Z,5
2022-10-14T09:16:06.652Z,5
2022-10-14T09:17:06.703Z,5
2022-10-14T09:18:06.671Z,5
2022-10-14T09:19:06.659Z,5
2022-10-14T09:20:06.685Z,5
2022-10-14T09:21:06.657Z,5
2022-10-14T09:22:06.667Z,5
2022-10-14T09:23:06.647Z,6
2022-10-14T09:24:06.644Z,5
2022-10-14T09:25:06.657Z,5
2022-10-14T09:26:06.685Z,6
2022-10-14T09:27:06.659Z,5
2022-10-14T09:28:06.667Z,5
2022-10-14T09:29:06.691Z,5
2022-10-14T09:30:06.668Z,5
2022-10-14T09:31:06.655Z,5
2022-10-14T09:32:06.672Z,5
2022-10-14T09:33:06.714Z,5
2022-10-14T09:34:12.922Z,5
2022-10-14T09:35:06.679Z,6
2022-10-14T09:36:06.648Z,5
2022-10-14T09:37:06.647Z,5
2022-10-14T09:38:06.664Z,5
2022-10-14T09:39:06.650Z,5
2022-10-14T09:40:06.652Z,5
2022-10-14T09:41:06.642Z,6
2022-10-14T09:42:06.644Z,5
2022-10-14T09:43:06.652Z,5
2022-10-14T09:44:06.654Z,6
2022-10-14T09:46:06.655Z,6
2022-10-14T09:47:09.408Z,6
2022-10-14T09:48:06.658Z,6
2022-10-14T09:49:06.652Z,6
2022-10-14T09:50:06.686Z,6
2022-10-14T09:51:06.673Z,6
2022-10-14T09:52:06.712Z,6
2022-10-14T09:53:10.737Z,6
2022-10-14T09:54:06.758Z,5
2022-10-14T09:55:06.653Z,6
2022-10-14T09:56:06.652Z,6
2022-10-14T09:57:06.684Z,6
2022-10-14T09:58:06.660Z,6
2022-10-14T09:59:06.665Z,6
2022-10-14T10:00:06.655Z,6
2022-10-14T10:01:06.655Z,7
2022-10-14T10:02:06.657Z,6
2022-10-14T10:03:06.646Z,6
2022-10-14T10:04:06.673Z,6
2022-10-14T10:05:06.673Z,6
2022-10-14T10:06:06.679Z,6
2022-10-14T10:07:06.659Z,6
2022-10-14T10:08:06.656Z,6
2022-10-14T10:09:06.688Z,6
2022-10-14T10:10:06.653Z,6
2022-10-14T10:11:07.303Z,6
2022-10-14T10:12:06.659Z,6
2022-10-14T10:13:06.749Z,6
2022-10-14T10:14:06.666Z,6
2022-10-14T10:15:06.663Z,6
2022-10-14T10:16:06.654Z,7
2022-10-14T10:17:06.654Z,6
2022-10-14T10:18:06.648Z,6
2022-10-14T10:19:06.658Z,7
2022-10-14T10:20:06.773Z,6
2022-10-14T10:21:06.650Z,7
2022-10-14T10:22:06.739Z,6
2022-10-14T10:23:06.676Z,6
2022-10-14T10:24:06.664Z,6
2022-10-14T10:25:06.668Z,6
2022-10-14T10:26:06.696Z,6
2022-10-14T10:27:06.657Z,6
2022-10-14T10:28:06.658Z,6
2022-10-14T10:29:06.654Z,6
2022-10-14T10:30:06.668Z,6
2022-10-14T10:31:06.659Z,6
2022-10-14T10:32:06.663Z,6
2022-10-14T10:33:06.661Z,6
2022-10-14T10:35:06.694Z,7
2022-10-14T10:36:06.714Z,7
2022-10-14T10:37:06.667Z,8
2022-10-14T10:38:06.664Z,7
2022-10-14T10:39:06.658Z,7
2022-10-14T10:40:06.680Z,6
2022-10-14T10:41:06.686Z,6
2022-10-14T10:42:06.672Z,7
2022-10-14T10:43:06.687Z,6
2022-10-14T10:44:06.658Z,7
2022-10-14T10:45:06.670Z,7
2022-10-14T10:46:06.665Z,7
2022-10-14T10:47:06.659Z,7
2022-10-14T10:48:06.660Z,7
2022-10-14T10:49:06.676Z,6
2022-10-14T10:50:06.663Z,7
2022-10-14T10:51:06.662Z,6
2022-10-14T10:52:06.662Z,6
2022-10-14T10:53:06.663Z,6
2022-10-14T10:54:06.662Z,7
2022-10-14T10:55:06.669Z,7
2022-10-14T10:56:06.671Z,7
2022-10-14T10:57:06.686Z,7
2022-10-14T10:58:09.070Z,6
2022-10-14T10:59:06.733Z,7
2022-10-14T11:00:06.692Z,7
2022-10-14T11:01:06.709Z,6
2022-10-14T11:02:06.658Z,6
2022-10-14T11:03:06.668Z,7
2022-10-14T11:04:06.671Z,6
2022-10-14T11:05:06.681Z,6
2022-10-14T11:06:06.692Z,7
2022-10-14T11:07:06.656Z,6
2022-10-14T11:08:06.681Z,7
2022-10-14T11:09:06.663Z,7
2022-10-14T11:10:06.672Z,7
2022-10-14T11:11:06.672Z,6
2022-10-14T11:12:06.668Z,7
2022-10-14T11:13:06.667Z,7
2022-10-14T11:14:06.710Z,7
2022-10-14T11:15:06.707Z,7
2022-10-14T11:16:06.678Z,7
2022-10-14T11:17:06.695Z,7
2022-10-14T11:18:06.683Z,7
2022-10-14T11:19:08.745Z,7
2022-10-14T11:20:06.687Z,7
2022-10-14T11:21:06.678Z,7
2022-10-14T11:22:06.683Z,7
2022-10-14T11:23:06.669Z,7
2022-10-14T11:24:06.727Z,7
2022-10-14T11:25:06.688Z,7
2022-10-14T11:26:06.711Z,6
2022-10-14T11:27:06.669Z,7
2022-10-14T11:28:06.684Z,7
2022-10-14T11:29:06.677Z,7
2022-10-14T11:30:06.676Z,7
2022-10-14T11:31:06.671Z,7
2022-10-14T11:32:06.669Z,7
2022-10-14T11:33:06.680Z,7
2022-10-14T11:34:06.693Z,7
2022-10-14T11:35:06.668Z,7
2022-10-14T11:36:06.684Z,7
2022-10-14T11:37:06.696Z,7
2022-10-14T11:38:06.679Z,7
2022-10-14T11:39:06.673Z,6
2022-10-14T11:40:06.678Z,7
2022-10-14T11:41:06.663Z,7
2022-10-14T11:42:06.684Z,7
2022-10-14T11:43:06.676Z,7
2022-10-14T11:44:06.687Z,7
2022-10-14T11:45:06.673Z,7
2022-10-14T11:46:06.695Z,7
2022-10-14T11:47:06.681Z,7
2022-10-14T11:48:06.678Z,7
2022-10-14T11:49:06.668Z,7
2022-10-14T11:50:06.678Z,7
2022-10-14T11:51:06.679Z,7
2022-10-14T11:52:06.688Z,7
2022-10-14T11:53:06.679Z,7
2022-10-14T11:54:06.676Z,6
2022-10-14T11:55:09.667Z,6
2022-10-14T11:56:06.680Z,6
2022-10-14T11:57:06.662Z,7
2022-10-14T11:58:06.681Z,6
2022-10-14T11:59:06.691Z,7
2022-10-14T12:00:06.683Z,7
2022-10-14T12:01:06.675Z,6
2022-10-14T12:02:06.811Z,6
2022-10-14T12:03:06.753Z,7
2022-10-14T12:04:06.676Z,7
2022-10-14T12:05:06.676Z,7
2022-10-14T12:06:06.675Z,6
2022-10-14T12:07:06.681Z,6
2022-10-14T12:08:06.706Z,6
2022-10-14T12:09:06.673Z,6
2022-10-14T12:10:06.681Z,6
2022-10-14T12:11:06.670Z,6
2022-10-14T12:12:06.680Z,6
2022-10-14T12:13:06.696Z,6
2022-10-14T12:14:06.674Z,6
2022-10-14T12:15:06.679Z,7
2022-10-14T12:16:06.677Z,7
2022-10-14T12:17:06.677Z,7
2022-10-14T12:18:06.678Z,7
2022-10-14T12:19:06.680Z,6
2022-10-14T12:20:06.673Z,7
2022-10-14T12:21:06.681Z,7
2022-10-14T12:22:06.675Z,7
2022-10-14T12:23:06.684Z,6
2022-10-14T12:24:06.670Z,6
2022-10-14T12:25:06.693Z,7
2022-10-14T12:26:06.675Z,6
2022-10-14T12:27:06.686Z,7
2022-10-14T12:28:06.678Z,7
2022-10-14T12:29:06.759Z,6
2022-10-14T12:30:06.681Z,6
2022-10-14T12:31:06.688Z,7
2022-10-14T12:32:06.677Z,6
2022-10-14T12:33:06.688Z,6
2022-10-14T12:34:06.682Z,6
2022-10-14T12:35:06.684Z,7
2022-10-14T12:36:06.675Z,7
2022-10-14T12:37:06.681Z,6
2022-10-14T12:38:06.688Z,7
2022-10-14T12:39:06.712Z,7
2022-10-14T12:40:06.686Z,6
2022-10-14T12:41:06.724Z,6
2022-10-14T12:42:06.709Z,6
2022-10-14T12:43:06.693Z,6
2022-10-14T12:44:06.666Z,6
2022-10-14T12:45:06.684Z,6
2022-10-14T12:46:06.704Z,6
2022-10-14T12:47:06.690Z,6
2022-10-14T12:48:06.666Z,6
2022-10-14T12:49:06.727Z,6
2022-10-14T12:50:06.691Z,6
2022-10-14T12:51:06.697Z,6
2022-10-14T12:52:06.685Z,6
2022-10-14T12:53:06.687Z,6
2022-10-14T12:55:06.675Z,6
2022-10-14T12:56:06.679Z,6
2022-10-14T12:57:06.703Z,7
2022-10-14T12:58:06.672Z,6
2022-10-14T12:59:06.840Z,6
2022-10-14T13:00:06.684Z,6
2022-10-14T13:01:06.899Z,6
2022-10-14T13:02:06.764Z,6
2022-10-14T13:03:06.709Z,6
2022-10-14T13:04:06.750Z,6
2022-10-14T13:05:06.704Z,6
2022-10-14T13:06:06.703Z,6
2022-10-14T13:07:11.680Z,6
2022-10-14T13:08:06.743Z,6
2022-10-14T13:09:06.705Z,6
2022-10-14T13:10:06.715Z,6
2022-10-14T13:11:06.732Z,6
2022-10-14T13:12:06.685Z,6
2022-10-14T13:14:06.873Z,6
2022-10-14T13:15:06.680Z,6
2022-10-14T13:16:06.716Z,7
2022-10-14T13:17:06.695Z,6
2022-10-14T13:18:06.708Z,6
2022-10-14T13:19:06.701Z,6
2022-10-14T13:20:06.752Z,6
2022-10-14T13:21:06.721Z,6
2022-10-14T13:22:06.770Z,5
2022-10-14T13:23:06.696Z,6
2022-10-14T13:24:06.712Z,6
2022-10-14T13:25:06.719Z,6
2022-10-14T13:26:06.697Z,6
2022-10-14T13:27:06.695Z,6
2022-10-14T13:28:06.695Z,5
2022-10-14T13:29:06.715Z,5
2022-10-14T13:30:06.684Z,5
2022-10-14T13:31:06.740Z,6
2022-10-14T13:32:06.750Z,5
2022-10-14T13:33:06.700Z,5
2022-10-14T13:34:06.695Z,6
2022-10-14T13:35:06.702Z,5
2022-10-14T13:36:06.705Z,5
2022-10-14T13:37:06.691Z,5
2022-10-14T13:38:06.686Z,5
2022-10-14T13:39:06.745Z,5
2022-10-14T13:40:06.723Z,5
2022-10-14T13:41:06.742Z,6
2022-10-14T13:42:06.694Z,5
2022-10-14T13:43:06.717Z,5
2022-10-14T13:44:06.790Z,5
2022-10-14T13:45:06.692Z,5
2022-10-14T13:46:06.712Z,5
2022-10-14T13:47:06.695Z,5
2022-10-14T13:48:06.705Z,5
2022-10-14T13:49:06.762Z,5
2022-10-14T13:50:06.698Z,5
2022-10-14T13:51:17.512Z,5
2022-10-14T13:52:06.704Z,5
2022-10-14T13:53:09.762Z,5
2022-10-14T13:54:06.702Z,5
2022-10-14T13:55:06.698Z,5
2022-10-14T13:56:06.726Z,5
2022-10-14T13:57:38.177Z,5
2022-10-14T13:58:14.227Z,5
2022-10-14T13:59:15.722Z,5
2022-10-14T14:01:06.868Z,6
2022-10-14T14:02:06.688Z,5
2022-10-14T14:03:06.701Z,5
2022-10-14T14:04:06.704Z,5
2022-10-14T14:05:06.695Z,5
2022-10-14T14:06:06.708Z,5
2022-10-14T14:07:35.095Z,5
2022-10-14T14:08:38.739Z,5
2022-10-14T14:09:06.699Z,5
2022-10-14T14:10:06.825Z,5
2022-10-14T14:11:22.065Z,5
2022-10-14T14:12:06.742Z,5
2022-10-14T14:13:06.704Z,5
2022-10-14T14:14:06.708Z,5
2022-10-14T14:15:06.703Z,5
2022-10-14T14:16:06.777Z,5
2022-10-14T14:17:06.702Z,5
2022-10-14T14:18:06.698Z,5
2022-10-14T14:19:09.212Z,5
2022-10-14T14:20:06.703Z,5
2022-10-14T14:21:06.718Z,5
2022-10-14T14:22:06.695Z,5
2022-10-14T14:23:06.703Z,5
2022-10-14T14:24:06.702Z,5
2022-10-14T14:25:18.156Z,5
2022-10-14T14:26:19.011Z,4
2022-10-14T14:27:06.710Z,5
2022-10-14T14:28:06.706Z,5
2022-10-14T14:29:06.702Z,5
2022-10-14T14:30:06.750Z,5
2022-10-14T14:31:06.783Z,5
2022-10-14T14:32:07.948Z,5
2022-10-14T14:33:06.695Z,5
2022-10-14T14:34:06.701Z,5
2022-10-14T14:35:06.714Z,5
2022-10-14T14:36:06.829Z,5
2022-10-14T14:38:06.738Z,5
2022-10-14T14:39:06.782Z,6
2022-10-14T14:40:06.710Z,6
2022-10-14T14:41:06.937Z,6
2022-10-14T14:42:06.706Z,7
2022-10-14T14:43:06.739Z,7
2022-10-14T14:44:24.511Z,7
2022-10-14T14:45:06.717Z,7
2022-10-14T14:46:06.739Z,7
2022-10-14T14:47:06.733Z,6
2022-10-14T14:48:06.709Z,6
2022-10-14T14:49:06.704Z,6
2022-10-14T14:50:29.039Z,6
2022-10-14T14:51:06.719Z,6
2022-10-14T14:52:06.715Z,6
2022-10-14T14:53:06.710Z,6
2022-10-14T14:54:06.708Z,6
2022-10-14T14:55:06.724Z,6